Hawk Springs, Wyoming
Current Conditions -  °F | °C
As of 5:53 AM on Tuesday 21 Oct 2014 (Local Time) from KTOR Reporting Station
Clear Clear  
Wind Chill: 42°   Ceiling: Unl
Heat Index: 42°   Visibility: 10mi
Dew Point: 35°   Wind: 0mph
Humidity: 76%   Direction: NA
Pressure: 29.95"   Gusts: NA
Location:  41.79°N, 104.27°W
Report Text: KTOR 211153Z AUTO 00000KT 10SM CLR 06/02 A2995 RMK AO2 SLP119 T00560017 10133 20050 56002
Loading
Personal Weather Stations






























Interactive Weather Map
Tropical Storm Tracking
New forecast layout! Learn more

10-Day Weather Forecast

Advertisements
Track Severe Weather on mobile